createdAt,value
2022-08-10T00:01:36.925Z,17.60
2022-08-10T00:04:04.297Z,17.50
2022-08-10T00:06:31.325Z,17.50
2022-08-10T00:08:58.615Z,17.50
2022-08-10T00:11:25.913Z,17.40
2022-08-10T00:13:53.211Z,17.40
2022-08-10T00:16:20.262Z,17.30
2022-08-10T00:18:47.267Z,17.30
2022-08-10T00:21:14.898Z,17.30
2022-08-10T00:23:42.033Z,17.30
2022-08-10T00:26:09.145Z,17.20
2022-08-10T00:28:36.211Z,17.20
2022-08-10T00:31:03.317Z,17.10
2022-08-10T00:33:30.311Z,17.10
2022-08-10T00:35:57.324Z,17.10
2022-08-10T00:38:24.346Z,17.10
2022-08-10T00:40:51.565Z,17.00
2022-08-10T00:43:23.884Z,17.10
2022-08-10T00:45:59.258Z,17.00
2022-08-10T00:48:29.132Z,17.00
2022-08-10T00:50:57.231Z,16.90
2022-08-10T00:53:24.432Z,16.90
2022-08-10T00:56:38.408Z,16.80
2022-08-10T00:58:40.606Z,16.80
2022-08-10T01:01:08.297Z,16.70
2022-08-10T01:04:54.239Z,16.70
2022-08-10T01:07:26.110Z,16.70
2022-08-10T01:10:18.986Z,16.70
2022-08-10T01:13:06.981Z,16.60
2022-08-10T01:15:48.730Z,16.50
2022-08-10T01:18:37.687Z,16.50
2022-08-10T01:21:29.443Z,16.50
2022-08-10T01:24:15.047Z,16.50
2022-08-10T01:27:06.502Z,16.40
2022-08-10T01:29:50.254Z,16.40
2022-08-10T01:32:24.855Z,16.30
2022-08-10T01:34:58.392Z,16.30
2022-08-10T01:37:32.544Z,16.20
2022-08-10T01:40:02.277Z,16.20
2022-08-10T01:42:33.264Z,16.20
2022-08-10T01:45:04.408Z,16.20
2022-08-10T01:47:54.439Z,16.20
2022-08-10T01:50:21.369Z,16.20
2022-08-10T01:52:52.445Z,16.10
2022-08-10T01:55:20.928Z,16.10
2022-08-10T01:57:49.932Z,16.00
2022-08-10T02:00:18.273Z,15.90
2022-08-10T02:02:47.214Z,15.80
2022-08-10T02:05:16.600Z,15.80
2022-08-10T02:07:46.594Z,15.80
2022-08-10T02:10:19.371Z,15.80
2022-08-10T02:12:48.722Z,15.70
2022-08-10T02:15:19.711Z,15.70
2022-08-10T02:17:58.034Z,15.70
2022-08-10T02:20:49.973Z,15.60
2022-08-10T02:23:25.481Z,15.60
2022-08-10T02:25:55.257Z,15.50
2022-08-10T02:28:27.151Z,15.50
2022-08-10T02:31:01.536Z,15.40
2022-08-10T02:33:30.298Z,15.40
2022-08-10T02:36:02.641Z,15.30
2022-08-10T02:38:59.591Z,15.30
2022-08-10T02:45:00.912Z,15.30
2022-08-10T02:45:17.699Z,15.30
2022-08-10T02:47:51.188Z,15.20
2022-08-10T02:50:28.208Z,15.20
2022-08-10T02:53:02.125Z,15.20
2022-08-10T02:55:46.573Z,15.20
2022-08-10T02:58:39.760Z,15.20
2022-08-10T03:01:12.115Z,15.20
2022-08-10T03:03:46.809Z,15.10
2022-08-10T03:06:19.228Z,15.10
2022-08-10T03:08:48.282Z,15.00
2022-08-10T03:12:36.380Z,15.00
2022-08-10T03:14:13.886Z,15.00
2022-08-10T03:16:42.884Z,15.00
2022-08-10T03:20:33.462Z,15.00
2022-08-10T03:22:00.088Z,15.00
2022-08-10T03:24:33.155Z,15.00
2022-08-10T03:27:01.632Z,15.00
2022-08-10T03:29:30.605Z,15.00
2022-08-10T03:32:19.882Z,15.00
2022-08-10T03:34:47.765Z,15.00
2022-08-10T03:37:14.885Z,14.90
2022-08-10T03:39:42.025Z,14.90
2022-08-10T03:42:13.054Z,14.90
2022-08-10T03:44:45.246Z,14.90
2022-08-10T03:47:17.481Z,14.90
2022-08-10T03:49:47.843Z,14.90
2022-08-10T03:52:17.582Z,14.90
2022-08-10T03:54:45.646Z,14.90
2022-08-10T03:57:13.670Z,14.90
2022-08-10T03:59:41.079Z,14.80
2022-08-10T04:02:44.074Z,14.80
2022-08-10T04:04:56.523Z,14.90
2022-08-10T04:07:23.864Z,14.80
2022-08-10T04:09:55.588Z,14.90
2022-08-10T04:12:24.414Z,14.90
2022-08-10T04:14:53.177Z,14.90
2022-08-10T04:17:59.507Z,14.90
2022-08-10T04:20:38.153Z,15.00
2022-08-10T04:23:14.415Z,15.00
2022-08-10T04:25:42.043Z,15.00
2022-08-10T04:28:10.904Z,15.00
2022-08-10T04:30:39.824Z,15.10
2022-08-10T04:33:09.779Z,15.10
2022-08-10T04:35:39.279Z,15.20
2022-08-10T04:38:07.042Z,15.20
2022-08-10T04:40:34.116Z,15.30
2022-08-10T04:43:12.383Z,15.30
2022-08-10T04:45:49.682Z,15.40
2022-08-10T04:48:42.475Z,15.40
2022-08-10T04:51:17.288Z,15.40
2022-08-10T04:54:05.362Z,15.50
2022-08-10T04:56:35.961Z,15.60
2022-08-10T04:59:05.270Z,15.60
2022-08-10T05:02:13.516Z,15.60
2022-08-10T05:04:35.842Z,15.70
2022-08-10T05:07:15.868Z,15.80
2022-08-10T05:10:02.996Z,15.90
2022-08-10T05:12:38.027Z,15.90
2022-08-10T05:15:11.852Z,18.30
2022-08-10T05:17:40.667Z,21.60
2022-08-10T05:20:10.385Z,24.30
2022-08-10T05:22:42.788Z,26.10
2022-08-10T05:25:13.887Z,27.50
2022-08-10T05:27:42.767Z,26.70
2022-08-10T05:30:14.202Z,24.00
2022-08-10T05:32:56.389Z,22.00
2022-08-10T05:35:28.477Z,20.60
2022-08-10T05:38:12.664Z,19.60
2022-08-10T05:40:47.121Z,18.90
2022-08-10T05:43:20.683Z,18.50
2022-08-10T05:46:17.572Z,18.20
2022-08-10T05:48:41.955Z,18.10
2022-08-10T05:51:26.483Z,18.00
2022-08-10T05:54:04.299Z,17.90
2022-08-10T05:56:55.099Z,17.90
2022-08-10T06:00:11.102Z,17.90
2022-08-10T06:02:35.049Z,18.00
2022-08-10T06:05:12.155Z,18.00
2022-08-10T06:07:42.927Z,18.00
2022-08-10T06:10:13.841Z,18.10
2022-08-10T06:13:08.291Z,18.20
2022-08-10T06:15:56.941Z,18.30
2022-08-10T06:18:24.572Z,18.30
2022-08-10T06:20:52.623Z,18.50
2022-08-10T06:23:19.960Z,18.60
2022-08-10T06:26:09.671Z,18.60
2022-08-10T06:28:38.414Z,18.70
2022-08-10T06:31:07.374Z,18.80
2022-08-10T06:33:37.603Z,18.90
2022-08-10T06:36:07.648Z,19.00
2022-08-10T06:38:38.380Z,19.20
2022-08-10T06:41:19.468Z,19.20
2022-08-10T06:43:58.131Z,19.30
2022-08-10T06:46:26.992Z,19.40
2022-08-10T06:49:00.559Z,19.50
2022-08-10T06:51:32.198Z,19.60
2022-08-10T06:54:04.880Z,19.70
2022-08-10T06:56:41.459Z,19.80
2022-08-10T06:59:32.262Z,19.90
2022-08-10T07:02:26.782Z,20.10
2022-08-10T07:05:01.320Z,20.20
2022-08-10T07:07:33.609Z,20.30
2022-08-10T07:10:01.900Z,20.40
2022-08-10T07:12:30.993Z,20.60
2022-08-10T07:15:00.785Z,20.60
2022-08-10T07:17:31.738Z,20.80
2022-08-10T07:20:01.728Z,20.90
2022-08-10T07:23:05.904Z,21.00
2022-08-10T07:25:22.418Z,21.00
2022-08-10T07:28:00.836Z,21.20
2022-08-10T07:30:35.952Z,21.30
2022-08-10T07:33:04.925Z,21.40
2022-08-10T07:35:42.057Z,21.50
2022-08-10T07:38:27.962Z,21.60
2022-08-10T07:40:56.525Z,21.70
2022-08-10T07:43:26.789Z,21.80
2022-08-10T07:45:56.853Z,22.00
2022-08-10T07:48:27.711Z,22.10
2022-08-10T07:50:59.519Z,22.10
2022-08-10T07:53:38.802Z,22.20
2022-08-10T07:56:21.329Z,22.40
2022-08-10T07:58:59.832Z,22.50
2022-08-10T08:01:32.211Z,22.60
2022-08-10T08:04:05.427Z,22.70
2022-08-10T08:06:39.674Z,22.80
2022-08-10T08:09:07.603Z,23.00
2022-08-10T08:11:37.542Z,23.10
2022-08-10T08:14:07.732Z,23.20
2022-08-10T08:16:37.552Z,23.40
2022-08-10T08:24:06.838Z,23.60
2022-08-10T08:24:42.365Z,23.70
2022-08-10T08:27:15.474Z,23.80
2022-08-10T08:29:45.343Z,23.90
2022-08-10T08:32:15.338Z,24.10
2022-08-10T08:34:45.515Z,24.10
2022-08-10T08:37:18.838Z,24.20
2022-08-10T08:40:06.831Z,24.30
2022-08-10T08:42:53.588Z,24.40
2022-08-10T08:45:48.176Z,24.50
2022-08-10T08:49:04.906Z,24.60
2022-08-10T08:52:09.832Z,24.80
2022-08-10T08:54:56.368Z,24.90
2022-08-10T08:57:50.679Z,25.10
2022-08-10T09:00:45.431Z,25.20
2022-08-10T09:03:30.446Z,25.20
2022-08-10T09:06:26.041Z,25.20
2022-08-10T09:09:15.955Z,25.30
2022-08-10T09:11:59.379Z,25.40
2022-08-10T09:14:38.800Z,25.50
2022-08-10T09:17:31.763Z,25.60
2022-08-10T09:20:10.082Z,25.60
2022-08-10T09:23:04.923Z,25.70
2022-08-10T09:25:37.470Z,25.80
2022-08-10T09:28:16.778Z,25.90
2022-08-10T09:31:28.848Z,26.00
2022-08-10T09:36:20.167Z,26.10
2022-08-10T09:37:39.898Z,26.30
2022-08-10T09:41:12.910Z,26.40
2022-08-10T09:43:50.918Z,26.50
2022-08-10T09:46:20.571Z,26.50
2022-08-10T09:48:53.204Z,26.40
2022-08-10T09:51:44.829Z,26.40
2022-08-10T09:54:42.878Z,26.50
2022-08-10T09:57:44.768Z,26.50
2022-08-10T10:00:14.448Z,26.50
2022-08-10T10:03:17.228Z,26.60
2022-08-10T10:06:11.039Z,26.70
2022-08-10T10:08:58.528Z,26.80
2022-08-10T10:11:58.431Z,26.90
2022-08-10T10:15:25.335Z,27.00
2022-08-10T10:18:08.211Z,27.00
2022-08-10T10:20:45.216Z,26.90
2022-08-10T10:24:05.366Z,27.00
2022-08-10T10:26:56.071Z,27.30
2022-08-10T10:29:57.174Z,27.50
2022-08-10T10:32:32.125Z,27.70
2022-08-10T10:35:14.035Z,27.80
2022-08-10T10:38:02.263Z,27.80
2022-08-10T10:40:53.173Z,27.90
2022-08-10T10:43:44.350Z,28.10
2022-08-10T10:46:45.483Z,28.20
2022-08-10T10:49:31.872Z,28.40
2022-08-10T10:52:29.642Z,28.60
2022-08-10T10:55:19.444Z,28.60
2022-08-10T10:57:58.575Z,28.40
2022-08-10T11:00:49.691Z,28.30
2022-08-10T11:04:03.879Z,28.00
2022-08-10T11:06:51.182Z,28.10
2022-08-10T11:10:08.942Z,28.20
2022-08-10T11:12:46.791Z,28.40
2022-08-10T11:15:29.322Z,28.30
2022-08-10T11:18:09.663Z,28.30
2022-08-10T11:20:51.043Z,28.20
2022-08-10T11:23:31.403Z,28.30
2022-08-10T11:26:19.593Z,28.40
2022-08-10T11:29:05.471Z,28.50
2022-08-10T11:31:44.710Z,28.70
2022-08-10T11:34:47.061Z,28.70
2022-08-10T11:37:14.908Z,28.80
2022-08-10T11:39:49.384Z,28.80
2022-08-10T11:42:31.966Z,28.50
2022-08-10T11:45:20.834Z,28.50
2022-08-10T11:47:54.889Z,28.50
2022-08-10T11:50:29.310Z,28.50
2022-08-10T11:53:27.138Z,28.60
2022-08-10T11:56:09.693Z,28.60
2022-08-10T11:59:16.860Z,28.80
2022-08-10T12:01:47.235Z,28.70
2022-08-10T12:04:16.350Z,28.80
2022-08-10T12:06:55.659Z,28.80
2022-08-10T12:10:11.244Z,29.00
2022-08-10T12:12:13.767Z,29.10
2022-08-10T12:15:02.825Z,29.20
2022-08-10T12:17:38.091Z,28.90
2022-08-10T12:20:22.311Z,29.00
2022-08-10T12:23:01.491Z,29.30
2022-08-10T12:25:56.696Z,29.50
2022-08-10T12:28:58.956Z,29.60
2022-08-10T12:31:33.278Z,29.80
2022-08-10T12:34:35.148Z,29.90
2022-08-10T12:37:25.095Z,29.60
2022-08-10T12:40:34.434Z,29.50
2022-08-10T12:44:06.331Z,29.50
2022-08-10T12:46:32.989Z,29.80
2022-08-10T12:49:21.473Z,29.90
2022-08-10T12:51:56.672Z,30.10
2022-08-10T12:54:32.067Z,30.20
2022-08-10T12:57:07.844Z,30.00
2022-08-10T12:59:45.002Z,29.60
2022-08-10T13:02:27.987Z,29.20
2022-08-10T13:04:58.349Z,29.20
2022-08-10T13:08:24.710Z,29.00
2022-08-10T13:10:27.563Z,29.20
2022-08-10T13:12:57.028Z,29.40
2022-08-10T13:15:50.113Z,29.50
2022-08-10T13:18:19.615Z,29.50
2022-08-10T13:20:52.811Z,29.60
2022-08-10T13:23:25.142Z,29.40
2022-08-10T13:25:55.170Z,29.20
2022-08-10T13:28:36.879Z,29.10
2022-08-10T13:31:17.063Z,29.00
2022-08-10T13:34:43.303Z,29.10
2022-08-10T13:36:57.926Z,29.20
2022-08-10T13:39:32.570Z,29.30
2022-08-10T13:42:32.330Z,29.50
2022-08-10T13:45:12.232Z,29.70
2022-08-10T13:47:48.347Z,29.70
2022-08-10T13:50:33.714Z,29.80
2022-08-10T13:53:09.972Z,30.00
2022-08-10T13:55:56.447Z,30.00
2022-08-10T13:58:31.452Z,29.90
2022-08-10T14:01:01.763Z,29.80
2022-08-10T14:03:38.984Z,29.90
2022-08-10T14:06:10.271Z,29.90
2022-08-10T14:08:39.091Z,29.90
2022-08-10T14:11:16.486Z,29.70
2022-08-10T14:13:59.070Z,29.30
2022-08-10T14:16:27.325Z,29.20
2022-08-10T14:18:56.828Z,29.30
2022-08-10T14:21:24.442Z,29.30
2022-08-10T14:23:53.805Z,29.30
2022-08-10T14:26:28.300Z,29.40
2022-08-10T14:29:19.909Z,29.40
2022-08-10T14:32:00.540Z,29.50
2022-08-10T14:36:16.190Z,29.50
2022-08-10T14:37:30.323Z,29.70
2022-08-10T14:40:11.823Z,29.70
2022-08-10T14:42:47.512Z,29.80
2022-08-10T14:45:38.262Z,29.70
2022-08-10T14:48:31.680Z,29.50
2022-08-10T14:51:03.632Z,29.50
2022-08-10T14:53:34.947Z,29.30
2022-08-10T14:56:07.691Z,29.30
2022-08-10T14:58:38.705Z,29.30
2022-08-10T15:01:07.837Z,29.30
2022-08-10T15:03:59.425Z,29.30
2022-08-10T15:06:30.177Z,29.30
2022-08-10T15:09:12.681Z,29.30
2022-08-10T15:12:15.669Z,29.30
2022-08-10T15:14:45.837Z,29.30
2022-08-10T15:17:23.746Z,29.20
2022-08-10T15:20:13.761Z,29.10
2022-08-10T15:22:51.082Z,29.20
2022-08-10T15:25:24.327Z,29.20
2022-08-10T15:28:06.569Z,29.20
2022-08-10T15:30:58.601Z,29.20
2022-08-10T15:34:09.069Z,29.00
2022-08-10T15:37:03.889Z,28.90
2022-08-10T15:40:20.936Z,28.90
2022-08-10T15:42:52.511Z,28.90
2022-08-10T15:45:19.843Z,28.80
2022-08-10T15:47:53.003Z,28.70
2022-08-10T15:50:40.058Z,28.70
2022-08-10T15:53:48.976Z,28.70
2022-08-10T15:56:43.417Z,28.60
2022-08-10T15:59:33.949Z,28.60
2022-08-10T16:02:16.191Z,28.50
2022-08-10T16:04:57.331Z,28.50
2022-08-10T16:07:57.438Z,28.50
2022-08-10T16:10:38.642Z,28.40
2022-08-10T16:14:00.302Z,28.40
2022-08-10T16:16:03.085Z,28.30
2022-08-10T16:18:36.501Z,28.30
2022-08-10T16:21:08.415Z,28.20
2022-08-10T16:23:43.784Z,28.10
2022-08-10T16:26:17.806Z,28.20
2022-08-10T16:28:58.031Z,28.10
2022-08-10T16:31:27.774Z,28.10
2022-08-10T16:33:58.614Z,28.00
2022-08-10T16:36:49.991Z,28.00
2022-08-10T16:39:57.987Z,27.90
2022-08-10T16:42:32.551Z,27.80
2022-08-10T16:45:29.032Z,27.70
2022-08-10T16:47:57.892Z,27.70
2022-08-10T16:50:33.911Z,27.60
2022-08-10T16:53:03.455Z,27.60
2022-08-10T16:55:48.284Z,27.50
2022-08-10T16:58:27.803Z,27.50
2022-08-10T17:01:03.878Z,27.30
2022-08-10T17:04:07.930Z,27.30
2022-08-10T17:06:30.537Z,27.30
2022-08-10T17:09:00.826Z,27.20
2022-08-10T17:11:30.875Z,27.20
2022-08-10T17:14:00.252Z,27.10
2022-08-10T17:16:37.958Z,27.10
2022-08-10T17:19:14.176Z,26.90
2022-08-10T17:21:51.122Z,26.90
2022-08-10T17:24:22.952Z,26.80
2022-08-10T17:26:51.173Z,26.80
2022-08-10T17:29:58.860Z,26.90
2022-08-10T17:32:29.549Z,26.90
2022-08-10T17:35:02.225Z,27.00
2022-08-10T17:37:36.449Z,27.00
2022-08-10T17:40:11.619Z,27.00
2022-08-10T17:42:40.780Z,27.10
2022-08-10T17:45:20.970Z,27.00
2022-08-10T17:48:09.550Z,26.90
2022-08-10T17:50:40.964Z,26.70
2022-08-10T17:53:21.668Z,26.50
2022-08-10T17:55:53.696Z,26.20
2022-08-10T17:58:22.026Z,26.00
2022-08-10T18:00:56.481Z,25.80
2022-08-10T18:03:29.598Z,25.80
2022-08-10T18:06:03.112Z,25.60
2022-08-10T18:08:35.075Z,25.50
2022-08-10T18:11:03.214Z,25.30
2022-08-10T18:13:55.209Z,25.30
2022-08-10T18:16:26.210Z,25.10
2022-08-10T18:19:00.334Z,25.00
2022-08-10T18:21:30.822Z,24.90
2022-08-10T18:24:14.172Z,24.80
2022-08-10T18:26:45.932Z,24.70
2022-08-10T18:29:18.845Z,24.60
2022-08-10T18:31:48.201Z,24.50
2022-08-10T18:34:21.155Z,24.40
2022-08-10T18:36:50.061Z,24.30
2022-08-10T18:39:24.215Z,24.20
2022-08-10T18:42:00.147Z,24.10
2022-08-10T18:44:37.369Z,24.00
2022-08-10T18:47:10.323Z,23.90
2022-08-10T18:49:37.238Z,23.80
2022-08-10T18:52:10.323Z,23.70
2022-08-10T18:54:45.212Z,23.70
2022-08-10T18:57:30.803Z,23.60
2022-08-10T19:00:19.215Z,23.50
2022-08-10T19:03:04.871Z,23.40
2022-08-10T19:06:11.008Z,23.30
2022-08-10T19:08:50.084Z,23.20
2022-08-10T19:11:48.928Z,23.10
2022-08-10T19:14:31.804Z,23.10
2022-08-10T19:17:19.054Z,22.90
2022-08-10T19:20:19.205Z,22.80
2022-08-10T19:23:18.924Z,22.80
2022-08-10T19:26:43.242Z,22.60
2022-08-10T19:28:54.529Z,22.60
2022-08-10T19:31:24.368Z,22.50
2022-08-10T19:34:39.913Z,22.40
2022-08-10T19:37:19.065Z,22.30
2022-08-10T19:40:13.434Z,22.20
2022-08-10T19:42:44.496Z,22.20
2022-08-10T19:46:01.299Z,22.10
2022-08-10T19:48:17.581Z,22.00
2022-08-10T19:50:56.090Z,22.00
2022-08-10T19:53:36.412Z,21.90
2022-08-10T19:56:34.058Z,21.80
2022-08-10T20:00:18.801Z,21.80
2022-08-10T20:02:32.500Z,21.70
2022-08-10T20:05:31.751Z,21.70
2022-08-10T20:08:08.483Z,21.60
2022-08-10T20:11:08.127Z,21.50
2022-08-10T20:13:49.158Z,21.40
2022-08-10T20:16:45.213Z,21.30
2022-08-10T20:19:53.940Z,21.20
2022-08-10T20:22:30.375Z,21.10
2022-08-10T20:25:17.713Z,21.00
2022-08-10T20:28:00.104Z,21.00
2022-08-10T20:30:32.782Z,20.90
2022-08-10T20:33:10.000Z,20.80
2022-08-10T20:36:11.173Z,20.70
2022-08-10T20:38:43.900Z,20.70
2022-08-10T20:41:43.708Z,20.60
2022-08-10T20:44:43.798Z,20.60
2022-08-10T20:47:19.781Z,20.60
2022-08-10T20:50:20.535Z,20.50
2022-08-10T20:52:52.194Z,20.50
2022-08-10T20:55:23.285Z,20.40
2022-08-10T20:58:08.880Z,20.30
2022-08-10T21:00:58.237Z,20.30
2022-08-10T21:03:44.051Z,20.30
2022-08-10T21:06:42.112Z,20.20
2022-08-10T21:09:29.145Z,20.20
2022-08-10T21:12:26.593Z,20.10
2022-08-10T21:15:24.932Z,20.10
2022-08-10T21:18:09.910Z,20.00
2022-08-10T21:23:32.369Z,19.90
2022-08-10T21:25:41.516Z,20.00
2022-08-10T21:26:18.138Z,19.80
2022-08-10T21:29:13.408Z,19.80
2022-08-10T21:31:57.852Z,19.80
2022-08-10T21:35:01.126Z,19.80
2022-08-10T21:37:56.429Z,19.70
2022-08-10T21:41:56.473Z,19.60
2022-08-10T21:44:58.561Z,19.60
2022-08-10T21:48:07.379Z,19.50
2022-08-10T21:51:24.493Z,19.50
2022-08-10T21:54:36.150Z,19.50
2022-08-10T21:57:43.538Z,19.40
2022-08-10T22:03:40.116Z,19.30
2022-08-10T22:06:28.451Z,19.20
2022-08-10T22:09:25.106Z,19.20
2022-08-10T22:12:31.170Z,19.20
2022-08-10T22:16:05.554Z,19.10
2022-08-10T22:19:01.459Z,19.00
2022-08-10T22:21:54.670Z,18.90
2022-08-10T22:24:56.636Z,18.90
2022-08-10T22:27:50.713Z,18.80
2022-08-10T22:30:38.504Z,18.70
2022-08-10T22:33:42.852Z,18.70
2022-08-10T22:36:46.527Z,18.60
2022-08-10T22:40:12.698Z,18.50
2022-08-10T22:43:09.791Z,18.50
2022-08-10T22:46:06.725Z,18.50
2022-08-10T22:49:00.103Z,18.40
2022-08-10T22:51:46.013Z,18.40
2022-08-10T22:54:54.531Z,18.30
2022-08-10T22:57:40.232Z,18.20
2022-08-10T23:00:31.014Z,18.10
2022-08-10T23:03:12.667Z,18.10
2022-08-10T23:05:54.308Z,18.00
2022-08-10T23:08:30.984Z,17.90
2022-08-10T23:11:07.537Z,17.90
2022-08-10T23:13:42.628Z,17.80
2022-08-10T23:16:37.538Z,17.80
2022-08-10T23:19:17.363Z,17.70
2022-08-10T23:22:04.367Z,17.60
2022-08-10T23:24:40.108Z,17.50
2022-08-10T23:27:12.247Z,17.50
2022-08-10T23:30:10.706Z,17.40
2022-08-10T23:32:37.409Z,17.40
2022-08-10T23:36:30.876Z,17.30
2022-08-10T23:38:01.627Z,17.30
2022-08-10T23:40:28.913Z,17.20
2022-08-10T23:42:57.657Z,17.20
2022-08-10T23:45:27.830Z,17.10
2022-08-10T23:47:59.031Z,17.10
2022-08-10T23:50:29.197Z,17.00
2022-08-10T23:53:01.793Z,17.00
2022-08-10T23:55:49.114Z,17.00
2022-08-10T23:58:22.223Z,16.90
